sensor_id;sensor_type;location;lat;lon;timestamp;pressure;altitude;pressure_sealevel;temperature;humidity
64967;BME280;51710;38.732;-121.358;2023-03-23T00:02:00;101069.50;;;16.58;58.64
64967;BME280;51710;38.732;-121.358;2023-03-23T00:04:26;101071.34;;;16.72;58.52
64967;BME280;51710;38.732;-121.358;2023-03-23T00:06:54;101071.72;;;16.69;57.51
64967;BME280;51710;38.732;-121.358;2023-03-23T00:09:21;101068.13;;;16.62;56.96
64967;BME280;51710;38.732;-121.358;2023-03-23T00:11:50;101063.78;;;16.47;57.40
64967;BME280;51710;38.732;-121.358;2023-03-23T00:14:18;101069.66;;;16.42;58.31
64967;BME280;51710;38.732;-121.358;2023-03-23T00:16:48;101072.19;;;16.44;57.50
64967;BME280;51710;38.732;-121.358;2023-03-23T00:19:16;101066.16;;;16.42;57.56
64967;BME280;51710;38.732;-121.358;2023-03-23T00:21:45;101065.13;;;16.43;58.16
64967;BME280;51710;38.732;-121.358;2023-03-23T00:24:14;101069.59;;;16.36;58.09
64967;BME280;51710;38.732;-121.358;2023-03-23T00:26:46;101081.44;;;16.27;58.36
64967;BME280;51710;38.732;-121.358;2023-03-23T00:29:22;101076.72;;;16.14;58.51
64967;BME280;51710;38.732;-121.358;2023-03-23T00:31:49;101088.13;;;16.02;58.89
64967;BME280;51710;38.732;-121.358;2023-03-23T00:34:18;101093.91;;;15.91;59.13
64967;BME280;51710;38.732;-121.358;2023-03-23T00:36:46;101092.69;;;15.78;59.08
64967;BME280;51710;38.732;-121.358;2023-03-23T00:39:13;101098.81;;;15.72;59.66
64967;BME280;51710;38.732;-121.358;2023-03-23T00:41:45;101101.50;;;15.72;59.71
64967;BME280;51710;38.732;-121.358;2023-03-23T00:44:13;101107.19;;;15.69;59.58
64967;BME280;51710;38.732;-121.358;2023-03-23T00:46:48;101106.91;;;15.64;60.04
64967;BME280;51710;38.732;-121.358;2023-03-23T00:49:19;101111.44;;;15.64;60.12
64967;BME280;51710;38.732;-121.358;2023-03-23T00:51:54;101113.31;;;15.63;59.98
64967;BME280;51710;38.732;-121.358;2023-03-23T00:54:21;101117.53;;;15.58;60.06
64967;BME280;51710;38.732;-121.358;2023-03-23T00:56:48;101113.34;;;15.55;60.43
64967;BME280;51710;38.732;-121.358;2023-03-23T00:59:14;101123.09;;;15.56;60.85
64967;BME280;51710;38.732;-121.358;2023-03-23T01:01:40;101122.81;;;15.51;60.71
64967;BME280;51710;38.732;-121.358;2023-03-23T01:04:07;101123.13;;;15.48;60.84
64967;BME280;51710;38.732;-121.358;2023-03-23T01:06:36;101125.53;;;15.43;60.80
64967;BME280;51710;38.732;-121.358;2023-03-23T01:09:07;101130.56;;;15.38;60.53
64967;BME280;51710;38.732;-121.358;2023-03-23T01:11:34;101132.59;;;15.36;61.11
64967;BME280;51710;38.732;-121.358;2023-03-23T01:14:01;101136.00;;;15.30;60.95
64967;BME280;51710;38.732;-121.358;2023-03-23T01:16:27;101135.53;;;15.27;60.77
64967;BME280;51710;38.732;-121.358;2023-03-23T01:18:54;101135.84;;;15.24;61.10
64967;BME280;51710;38.732;-121.358;2023-03-23T01:21:20;101140.41;;;15.23;61.40
64967;BME280;51710;38.732;-121.358;2023-03-23T01:23:48;101143.28;;;15.22;61.68
64967;BME280;51710;38.732;-121.358;2023-03-23T01:26:17;101141.28;;;15.16;61.28
64967;BME280;51710;38.732;-121.358;2023-03-23T01:28:43;101154.22;;;15.12;61.50
64967;BME280;51710;38.732;-121.358;2023-03-23T01:31:13;101151.03;;;15.09;61.14
64967;BME280;51710;38.732;-121.358;2023-03-23T01:33:41;101149.88;;;15.03;61.55
64967;BME280;51710;38.732;-121.358;2023-03-23T01:36:11;101155.44;;;15.02;61.86
64967;BME280;51710;38.732;-121.358;2023-03-23T01:38:38;101153.28;;;14.97;62.11
64967;BME280;51710;38.732;-121.358;2023-03-23T01:41:05;101157.16;;;14.95;62.01
64967;BME280;51710;38.732;-121.358;2023-03-23T01:43:31;101157.00;;;14.88;62.48
64967;BME280;51710;38.732;-121.358;2023-03-23T01:45:58;101157.69;;;14.82;62.53
64967;BME280;51710;38.732;-121.358;2023-03-23T01:48:34;101168.94;;;14.78;63.16
64967;BME280;51710;38.732;-121.358;2023-03-23T01:51:09;101176.38;;;14.68;63.31
64967;BME280;51710;38.732;-121.358;2023-03-23T01:53:44;101173.88;;;14.58;64.04
64967;BME280;51710;38.732;-121.358;2023-03-23T01:56:13;101180.28;;;14.41;64.81
64967;BME280;51710;38.732;-121.358;2023-03-23T01:58:42;101183.97;;;14.24;65.24
64967;BME280;51710;38.732;-121.358;2023-03-23T02:01:12;101180.28;;;14.09;65.64
64967;BME280;51710;38.732;-121.358;2023-03-23T02:03:42;101186.00;;;13.98;66.02
64967;BME280;51710;38.732;-121.358;2023-03-23T02:06:10;101185.16;;;13.89;66.22
64967;BME280;51710;38.732;-121.358;2023-03-23T02:08:38;101198.69;;;13.80;66.45
64967;BME280;51710;38.732;-121.358;2023-03-23T02:11:16;101202.72;;;13.68;67.52
64967;BME280;51710;38.732;-121.358;2023-03-23T02:13:44;101207.53;;;13.56;68.30
64967;BME280;51710;38.732;-121.358;2023-03-23T02:16:20;101205.84;;;13.47;69.56
64967;BME280;51710;38.732;-121.358;2023-03-23T02:27:17;101211.25;;;13.05;73.59
64967;BME280;51710;38.732;-121.358;2023-03-23T02:35:17;101214.50;;;12.91;74.33
64967;BME280;51710;38.732;-121.358;2023-03-23T02:37:52;101210.44;;;12.87;74.66
64967;BME280;51710;38.732;-121.358;2023-03-23T02:40:27;101210.63;;;12.86;75.02
64967;BME280;51710;38.732;-121.358;2023-03-23T02:42:57;101216.81;;;12.86;75.58
64967;BME280;51710;38.732;-121.358;2023-03-23T02:45:27;101212.59;;;12.84;75.64
64967;BME280;51710;38.732;-121.358;2023-03-23T02:47:56;101215.75;;;12.79;76.41
64967;BME280;51710;38.732;-121.358;2023-03-23T02:50:24;101226.47;;;12.79;76.52
64967;BME280;51710;38.732;-121.358;2023-03-23T02:52:53;101225.78;;;12.77;76.47
64967;BME280;51710;38.732;-121.358;2023-03-23T02:55:22;101227.94;;;12.74;77.08
64967;BME280;51710;38.732;-121.358;2023-03-23T02:57:54;101229.06;;;12.71;77.44
64967;BME280;51710;38.732;-121.358;2023-03-23T03:00:22;101238.09;;;12.70;77.68
64967;BME280;51710;38.732;-121.358;2023-03-23T03:02:51;101245.75;;;12.65;78.02
64967;BME280;51710;38.732;-121.358;2023-03-23T03:05:26;101240.34;;;12.57;78.41
64967;BME280;51710;38.732;-121.358;2023-03-23T03:10:37;101241.88;;;12.60;78.90
64967;BME280;51710;38.732;-121.358;2023-03-23T03:21:38;101252.13;;;12.46;80.03
64967;BME280;51710;38.732;-121.358;2023-03-23T03:24:08;101257.09;;;12.41;80.27
64967;BME280;51710;38.732;-121.358;2023-03-23T03:26:40;101259.56;;;12.35;81.11
64967;BME280;51710;38.732;-121.358;2023-03-23T03:29:18;101257.56;;;12.37;80.48
64967;BME280;51710;38.732;-121.358;2023-03-23T03:31:48;101265.22;;;12.32;81.50
64967;BME280;51710;38.732;-121.358;2023-03-23T03:34:15;101265.75;;;12.35;81.82
64967;BME280;51710;38.732;-121.358;2023-03-23T03:36:47;101268.25;;;12.37;81.78
64967;BME280;51710;38.732;-121.358;2023-03-23T03:39:16;101271.28;;;12.42;82.10
64967;BME280;51710;38.732;-121.358;2023-03-23T03:41:43;101277.47;;;12.42;82.07
64967;BME280;51710;38.732;-121.358;2023-03-23T03:44:10;101278.63;;;12.40;82.11
64967;BME280;51710;38.732;-121.358;2023-03-23T03:46:37;101283.16;;;12.39;82.73
64967;BME280;51710;38.732;-121.358;2023-03-23T03:49:06;101284.97;;;12.39;82.64
64967;BME280;51710;38.732;-121.358;2023-03-23T03:51:34;101288.78;;;12.36;83.09
64967;BME280;51710;38.732;-121.358;2023-03-23T03:54:01;101299.47;;;12.36;83.40
64967;BME280;51710;38.732;-121.358;2023-03-23T03:56:27;101305.50;;;12.38;83.36
64967;BME280;51710;38.732;-121.358;2023-03-23T03:58:54;101305.31;;;12.40;83.38
64967;BME280;51710;38.732;-121.358;2023-03-23T04:01:21;101307.03;;;12.41;83.37
64967;BME280;51710;38.732;-121.358;2023-03-23T04:03:51;101315.69;;;12.43;84.09
64967;BME280;51710;38.732;-121.358;2023-03-23T04:06:17;101321.56;;;12.46;83.94
64967;BME280;51710;38.732;-121.358;2023-03-23T04:08:44;101333.31;;;12.54;83.69
64967;BME280;51710;38.732;-121.358;2023-03-23T04:11:13;101331.84;;;12.59;83.48
64967;BME280;51710;38.732;-121.358;2023-03-23T04:13:40;101341.19;;;12.55;83.78
64967;BME280;51710;38.732;-121.358;2023-03-23T04:16:07;101349.50;;;12.52;83.97
64967;BME280;51710;38.732;-121.358;2023-03-23T04:18:35;101342.50;;;12.51;84.16
64967;BME280;51710;38.732;-121.358;2023-03-23T04:21:02;101351.03;;;12.55;84.03
64967;BME280;51710;38.732;-121.358;2023-03-23T04:23:31;101354.56;;;12.55;83.54
64967;BME280;51710;38.732;-121.358;2023-03-23T04:25:59;101353.22;;;12.59;83.65
64967;BME280;51710;38.732;-121.358;2023-03-23T04:28:25;101356.28;;;12.64;83.10
64967;BME280;51710;38.732;-121.358;2023-03-23T04:30:54;101356.28;;;12.64;83.01
64967;BME280;51710;38.732;-121.358;2023-03-23T04:33:23;101357.66;;;12.68;83.09
64967;BME280;51710;38.732;-121.358;2023-03-23T04:35:52;101365.84;;;12.67;82.94
64967;BME280;51710;38.732;-121.358;2023-03-23T04:38:20;101368.13;;;12.62;82.76
64967;BME280;51710;38.732;-121.358;2023-03-23T04:40:48;101366.75;;;12.58;82.72
64967;BME280;51710;38.732;-121.358;2023-03-23T04:43:18;101368.19;;;12.52;82.37
64967;BME280;51710;38.732;-121.358;2023-03-23T04:45:57;101374.56;;;12.51;82.20
64967;BME280;51710;38.732;-121.358;2023-03-23T04:48:29;101370.50;;;12.47;81.94
64967;BME280;51710;38.732;-121.358;2023-03-23T04:51:00;101388.13;;;12.40;81.84
64967;BME280;51710;38.732;-121.358;2023-03-23T04:53:29;101390.25;;;12.36;82.08
64967;BME280;51710;38.732;-121.358;2023-03-23T04:55:56;101395.59;;;12.36;82.24
64967;BME280;51710;38.732;-121.358;2023-03-23T04:58:22;101391.81;;;12.39;82.53
64967;BME280;51710;38.732;-121.358;2023-03-23T05:00:50;101396.84;;;12.42;82.31
64967;BME280;51710;38.732;-121.358;2023-03-23T05:03:17;101402.88;;;12.44;82.39
64967;BME280;51710;38.732;-121.358;2023-03-23T05:05:44;101409.88;;;12.45;82.72
64967;BME280;51710;38.732;-121.358;2023-03-23T05:08:21;101412.88;;;12.42;82.65
64967;BME280;51710;38.732;-121.358;2023-03-23T05:10:55;101405.00;;;12.40;82.01
64967;BME280;51710;38.732;-121.358;2023-03-23T05:13:22;101406.13;;;12.38;82.07
64967;BME280;51710;38.732;-121.358;2023-03-23T05:15:49;101410.72;;;12.28;82.45
64967;BME280;51710;38.732;-121.358;2023-03-23T05:18:15;101410.66;;;12.20;82.74
64967;BME280;51710;38.732;-121.358;2023-03-23T05:20:42;101402.53;;;12.12;83.14
64967;BME280;51710;38.732;-121.358;2023-03-23T05:23:12;101408.47;;;12.06;83.90
64967;BME280;51710;38.732;-121.358;2023-03-23T05:25:39;101415.34;;;12.08;84.26
64967;BME280;51710;38.732;-121.358;2023-03-23T05:28:09;101408.88;;;12.11;84.16
64967;BME280;51710;38.732;-121.358;2023-03-23T05:30:37;101409.03;;;12.09;84.13
64967;BME280;51710;38.732;-121.358;2023-03-23T05:33:05;101419.69;;;12.09;84.47
64967;BME280;51710;38.732;-121.358;2023-03-23T05:35:32;101424.88;;;12.11;84.79
64967;BME280;51710;38.732;-121.358;2023-03-23T05:37:58;101421.91;;;12.14;84.79
64967;BME280;51710;38.732;-121.358;2023-03-23T05:40:25;101432.28;;;12.17;84.67
64967;BME280;51710;38.732;-121.358;2023-03-23T05:42:53;101436.50;;;12.19;84.84
64967;BME280;51710;38.732;-121.358;2023-03-23T05:45:21;101439.00;;;12.21;84.37
64967;BME280;51710;38.732;-121.358;2023-03-23T05:47:49;101440.72;;;12.22;84.05
64967;BME280;51710;38.732;-121.358;2023-03-23T05:50:15;101438.69;;;12.24;84.08
64967;BME280;51710;38.732;-121.358;2023-03-23T05:52:42;101438.69;;;12.24;84.00
64967;BME280;51710;38.732;-121.358;2023-03-23T05:55:09;101448.56;;;12.23;83.80
64967;BME280;51710;38.732;-121.358;2023-03-23T05:57:36;101440.41;;;12.25;83.68
64967;BME280;51710;38.732;-121.358;2023-03-23T06:00:04;101442.06;;;12.26;84.02
64967;BME280;51710;38.732;-121.358;2023-03-23T06:02:40;101448.25;;;12.26;83.88
64967;BME280;51710;38.732;-121.358;2023-03-23T06:05:11;101459.78;;;12.27;83.38
64967;BME280;51710;38.732;-121.358;2023-03-23T06:07:37;101458.09;;;12.26;83.75
64967;BME280;51710;38.732;-121.358;2023-03-23T06:10:07;101459.78;;;12.27;83.41
64967;BME280;51710;38.732;-121.358;2023-03-23T06:12:36;101466.25;;;12.24;83.48
64967;BME280;51710;38.732;-121.358;2023-03-23T06:15:02;101460.38;;;12.21;83.48
64967;BME280;51710;38.732;-121.358;2023-03-23T06:17:30;101467.69;;;12.19;83.16
64967;BME280;51710;38.732;-121.358;2023-03-23T06:19:57;101464.63;;;12.14;83.29
64967;BME280;51710;38.732;-121.358;2023-03-23T06:22:23;101467.59;;;12.11;83.69
64967;BME280;51710;38.732;-121.358;2023-03-23T06:24:49;101473.63;;;12.13;83.54
64967;BME280;51710;38.732;-121.358;2023-03-23T06:27:15;101467.44;;;12.12;83.73
64967;BME280;51710;38.732;-121.358;2023-03-23T06:29:43;101470.97;;;12.13;84.14
64967;BME280;51710;38.732;-121.358;2023-03-23T06:32:10;101468.31;;;12.13;83.75
64967;BME280;51710;38.732;-121.358;2023-03-23T06:34:38;101468.31;;;12.13;83.79
64967;BME280;51710;38.732;-121.358;2023-03-23T06:37:06;101469.13;;;12.13;83.61
64967;BME280;51710;38.732;-121.358;2023-03-23T06:39:32;101468.00;;;12.16;83.99
64967;BME280;51710;38.732;-121.358;2023-03-23T06:41:58;101460.13;;;12.14;83.36
64967;BME280;51710;38.732;-121.358;2023-03-23T06:44:25;101464.63;;;12.14;83.71
64967;BME280;51710;38.732;-121.358;2023-03-23T06:46:51;101467.31;;;12.14;84.14
64967;BME280;51710;38.732;-121.358;2023-03-23T06:49:17;101461.00;;;12.15;83.86
64967;BME280;51710;38.732;-121.358;2023-03-23T06:51:44;101468.00;;;12.16;83.59
64967;BME280;51710;38.732;-121.358;2023-03-23T06:54:10;101462.66;;;12.16;83.57
64967;BME280;51710;38.732;-121.358;2023-03-23T06:56:36;101463.66;;;12.15;83.47
64967;BME280;51710;38.732;-121.358;2023-03-23T06:59:03;101461.25;;;12.12;83.27
64967;BME280;51710;38.732;-121.358;2023-03-23T07:01:29;101456.94;;;12.11;83.44
64967;BME280;51710;38.732;-121.358;2023-03-23T07:03:55;101458.75;;;12.10;83.48
64967;BME280;51710;38.732;-121.358;2023-03-23T07:06:23;101463.25;;;12.10;83.46
64967;BME280;51710;38.732;-121.358;2023-03-23T07:08:49;101463.25;;;12.10;83.92
64967;BME280;51710;38.732;-121.358;2023-03-23T07:11:15;101466.59;;;12.12;83.75
64967;BME280;51710;38.732;-121.358;2023-03-23T07:13:42;101468.16;;;12.14;83.36
64967;BME280;51710;38.732;-121.358;2023-03-23T07:16:08;101473.34;;;12.16;83.64
64967;BME280;51710;38.732;-121.358;2023-03-23T07:18:36;101473.34;;;12.16;83.29
64967;BME280;51710;38.732;-121.358;2023-03-23T07:21:02;101470.66;;;12.16;83.52
64967;BME280;51710;38.732;-121.358;2023-03-23T07:23:30;101468.69;;;12.18;83.72
64967;BME280;51710;38.732;-121.358;2023-03-23T07:25:56;101470.34;;;12.19;83.33
64967;BME280;51710;38.732;-121.358;2023-03-23T07:28:22;101470.34;;;12.19;83.06
64967;BME280;51710;38.732;-121.358;2023-03-23T07:30:49;101474.72;;;12.20;83.37
64967;BME280;51710;38.732;-121.358;2023-03-23T07:33:15;101472.75;;;12.22;83.42
64967;BME280;51710;38.732;-121.358;2023-03-23T07:35:42;101465.41;;;12.24;82.92
64967;BME280;51710;38.732;-121.358;2023-03-23T07:38:08;101460.22;;;12.22;82.79
64967;BME280;51710;38.732;-121.358;2023-03-23T07:40:35;101461.06;;;12.23;83.07
64967;BME280;51710;38.732;-121.358;2023-03-23T07:43:03;101456.56;;;12.23;82.98
64967;BME280;51710;38.732;-121.358;2023-03-23T07:45:30;101463.75;;;12.23;83.03
64967;BME280;51710;38.732;-121.358;2023-03-23T07:47:57;101469.09;;;12.23;82.73
64967;BME280;51710;38.732;-121.358;2023-03-23T07:50:23;101474.56;;;12.21;82.93
64967;BME280;51710;38.732;-121.358;2023-03-23T07:52:56;101468.38;;;12.21;83.00
64967;BME280;51710;38.732;-121.358;2023-03-23T07:55:25;101476.41;;;12.21;82.65
64967;BME280;51710;38.732;-121.358;2023-03-23T07:57:54;101476.41;;;12.21;83.05
64967;BME280;51710;38.732;-121.358;2023-03-23T08:00:21;101487.63;;;12.24;82.85
64967;BME280;51710;38.732;-121.358;2023-03-23T08:02:52;101483.66;;;12.28;82.83
64967;BME280;51710;38.732;-121.358;2023-03-23T08:05:19;101481.69;;;12.30;82.11
64967;BME280;51710;38.732;-121.358;2023-03-23T08:07:47;101486.19;;;12.30;82.51
64967;BME280;51710;38.732;-121.358;2023-03-23T08:10:14;101488.84;;;12.30;82.14
64967;BME280;51710;38.732;-121.358;2023-03-23T08:12:44;101487.31;;;12.27;82.11
64967;BME280;51710;38.732;-121.358;2023-03-23T08:15:13;101485.66;;;12.26;82.46
64967;BME280;51710;38.732;-121.358;2023-03-23T08:17:41;101490.13;;;12.26;82.15
64967;BME280;51710;38.732;-121.358;2023-03-23T08:20:09;101487.47;;;12.26;82.11
64967;BME280;51710;38.732;-121.358;2023-03-23T08:22:40;101487.63;;;12.24;82.46
64967;BME280;51710;38.732;-121.358;2023-03-23T08:25:08;101497.44;;;12.24;82.60
64967;BME280;51710;38.732;-121.358;2023-03-23T08:27:34;101496.78;;;12.22;82.05
64967;BME280;51710;38.732;-121.358;2023-03-23T08:30:01;101493.41;;;12.20;82.12
64967;BME280;51710;38.732;-121.358;2023-03-23T08:32:28;101497.06;;;12.19;82.02
64967;BME280;51710;38.732;-121.358;2023-03-23T08:34:54;101495.53;;;12.16;82.47
64967;BME280;51710;38.732;-121.358;2023-03-23T08:37:21;101494.69;;;12.16;82.58
64967;BME280;51710;38.732;-121.358;2023-03-23T08:39:51;101500.34;;;12.13;82.40
64967;BME280;51710;38.732;-121.358;2023-03-23T08:42:18;101498.63;;;12.12;82.35
64967;BME280;51710;38.732;-121.358;2023-03-23T08:44:44;101499.78;;;12.09;82.48
64967;BME280;51710;38.732;-121.358;2023-03-23T08:47:10;101499.25;;;12.06;82.71
64967;BME280;51710;38.732;-121.358;2023-03-23T08:49:37;101509.06;;;12.05;83.23
64967;BME280;51710;38.732;-121.358;2023-03-23T08:52:03;101509.06;;;12.05;82.90
64967;BME280;51710;38.732;-121.358;2023-03-23T08:54:30;101510.22;;;12.03;82.86
64967;BME280;51710;38.732;-121.358;2023-03-23T08:56:59;101508.97;;;11.97;82.88
64967;BME280;51710;38.732;-121.358;2023-03-23T08:59:26;101510.09;;;11.95;83.41
64967;BME280;51710;38.732;-121.358;2023-03-23T09:01:53;101502.09;;;11.95;83.81
64967;BME280;51710;38.732;-121.358;2023-03-23T09:04:19;101504.22;;;11.91;83.72
64967;BME280;51710;38.732;-121.358;2023-03-23T09:06:45;101505.38;;;11.89;83.60
64967;BME280;51710;38.732;-121.358;2023-03-23T09:09:14;101504.66;;;11.87;84.07
64967;BME280;51710;38.732;-121.358;2023-03-23T09:11:41;101507.75;;;11.82;84.03
64967;BME280;51710;38.732;-121.358;2023-03-23T09:14:07;101505.69;;;11.76;84.01
64967;BME280;51710;38.732;-121.358;2023-03-23T09:16:34;101496.44;;;11.71;84.07
64967;BME280;51710;38.732;-121.358;2023-03-23T09:19:01;101504.75;;;11.68;84.11
64967;BME280;51710;38.732;-121.358;2023-03-23T09:21:28;101504.19;;;11.64;84.30
64967;BME280;51710;38.732;-121.358;2023-03-23T09:23:55;101500.22;;;11.59;84.38
64967;BME280;51710;38.732;-121.358;2023-03-23T09:26:25;101504.16;;;11.55;84.73
64967;BME280;51710;38.732;-121.358;2023-03-23T09:28:52;101505.44;;;11.51;84.82
64967;BME280;51710;38.732;-121.358;2023-03-23T09:31:18;101502.22;;;11.47;85.10
64967;BME280;51710;38.732;-121.358;2023-03-23T09:33:48;101504.47;;;11.42;85.14
64967;BME280;51710;38.732;-121.358;2023-03-23T09:36:18;101503.25;;;11.37;85.32
64967;BME280;51710;38.732;-121.358;2023-03-23T09:38:47;101499.16;;;11.32;85.92
64967;BME280;51710;38.732;-121.358;2023-03-23T09:46:51;101492.47;;;11.19;86.73
64967;BME280;51710;38.732;-121.358;2023-03-23T09:52:09;101486.00;;;11.12;86.92
64967;BME280;51710;38.732;-121.358;2023-03-23T09:54:48;101478.16;;;11.10;87.19
64967;BME280;51710;38.732;-121.358;2023-03-23T09:57:27;101492.59;;;11.08;87.26
64967;BME280;51710;38.732;-121.358;2023-03-23T10:05:46;101486.00;;;11.02;87.71
64967;BME280;51710;38.732;-121.358;2023-03-23T10:08:18;101494.84;;;11.03;88.02
64967;BME280;51710;38.732;-121.358;2023-03-23T10:10:58;101503.69;;;11.03;88.06
64967;BME280;51710;38.732;-121.358;2023-03-23T10:13:54;101494.41;;;11.07;88.04
64967;BME280;51710;38.732;-121.358;2023-03-23T10:16:26;101504.38;;;11.15;88.22
64967;BME280;51710;38.732;-121.358;2023-03-23T10:19:14;101500.16;;;11.22;88.28
64967;BME280;51710;38.732;-121.358;2023-03-23T10:22:04;101496.91;;;11.28;87.86
64967;BME280;51710;38.732;-121.358;2023-03-23T10:24:57;101496.50;;;11.32;87.93
64967;BME280;51710;38.732;-121.358;2023-03-23T10:30:25;101501.13;;;11.40;88.21
64967;BME280;51710;38.732;-121.358;2023-03-23T10:32:58;101492.53;;;11.46;88.25
64967;BME280;51710;38.732;-121.358;2023-03-23T10:35:55;101495.47;;;11.53;87.78
64967;BME280;51710;38.732;-121.358;2023-03-23T10:38:47;101497.72;;;11.57;87.55
64967;BME280;51710;38.732;-121.358;2023-03-23T10:41:17;101494.91;;;11.59;87.47
64967;BME280;51710;38.732;-121.358;2023-03-23T10:43:45;101503.59;;;11.61;87.73
64967;BME280;51710;38.732;-121.358;2023-03-23T10:48:53;101512.31;;;11.63;87.78
64967;BME280;51710;38.732;-121.358;2023-03-23T10:51:27;101512.31;;;11.63;88.15
64967;BME280;51710;38.732;-121.358;2023-03-23T10:53:59;101509.38;;;11.66;87.93
64967;BME280;51710;38.732;-121.358;2023-03-23T10:56:39;101515.41;;;11.68;88.33
64967;BME280;51710;38.732;-121.358;2023-03-23T10:59:26;101512.44;;;11.71;88.42
64967;BME280;51710;38.732;-121.358;2023-03-23T11:01:55;101521.44;;;11.70;88.06
64967;BME280;51710;38.732;-121.358;2023-03-23T11:04:23;101519.91;;;11.67;88.33
64967;BME280;51710;38.732;-121.358;2023-03-23T11:06:53;101521.97;;;11.64;88.44
64967;BME280;51710;38.732;-121.358;2023-03-23T11:09:32;101519.59;;;11.61;88.27
64967;BME280;51710;38.732;-121.358;2023-03-23T11:11:59;101519.47;;;11.62;88.48
64967;BME280;51710;38.732;-121.358;2023-03-23T11:14:28;101525.75;;;11.61;88.32
64967;BME280;51710;38.732;-121.358;2023-03-23T11:17:02;101525.91;;;11.60;88.33
64967;BME280;51710;38.732;-121.358;2023-03-23T11:19:32;101522.97;;;11.63;88.92
64967;BME280;51710;38.732;-121.358;2023-03-23T11:24:36;101519.59;;;11.61;88.58
64967;BME280;51710;38.732;-121.358;2023-03-23T11:27:07;101530.28;;;11.61;88.50
64967;BME280;51710;38.732;-121.358;2023-03-23T11:29:36;101523.94;;;11.62;88.65
64967;BME280;51710;38.732;-121.358;2023-03-23T11:32:06;101514.84;;;11.64;88.90
64967;BME280;51710;38.732;-121.358;2023-03-23T11:34:41;101520.31;;;11.63;88.45
64967;BME280;51710;38.732;-121.358;2023-03-23T11:39:59;101520.72;;;11.58;88.33
64967;BME280;51710;38.732;-121.358;2023-03-23T11:42:48;101525.75;;;11.61;88.60
64967;BME280;51710;38.732;-121.358;2023-03-23T11:45:22;101528.56;;;11.60;88.50
64967;BME280;51710;38.732;-121.358;2023-03-23T11:51:16;101524.09;;;11.51;87.86
64967;BME280;51710;38.732;-121.358;2023-03-23T11:56:44;101532.84;;;11.43;88.19
64967;BME280;51710;38.732;-121.358;2023-03-23T11:59:25;101530.56;;;11.38;88.03
64967;BME280;51710;38.732;-121.358;2023-03-23T12:02:05;101530.88;;;11.35;88.10
64967;BME280;51710;38.732;-121.358;2023-03-23T12:07:19;101537.91;;;11.37;88.03
64967;BME280;51710;38.732;-121.358;2023-03-23T12:10:02;101540.44;;;11.38;88.30
64967;BME280;51710;38.732;-121.358;2023-03-23T12:13:05;101541.25;;;11.38;88.43
64967;BME280;51710;38.732;-121.358;2023-03-23T12:15:52;101537.63;;;11.40;88.36
64967;BME280;51710;38.732;-121.358;2023-03-23T12:29:56;101558.13;;;11.29;87.94
64967;BME280;51710;38.732;-121.358;2023-03-23T12:32:43;101564.28;;;11.30;87.48
64967;BME280;51710;38.732;-121.358;2023-03-23T12:40:56;101576.50;;;11.32;87.55
64967;BME280;51710;38.732;-121.358;2023-03-23T12:43:48;101582.94;;;11.30;87.58
64967;BME280;51710;38.732;-121.358;2023-03-23T12:49:17;101588.41;;;11.28;87.95
64967;BME280;51710;38.732;-121.358;2023-03-23T12:59:41;101600.19;;;11.35;87.39
64967;BME280;51710;38.732;-121.358;2023-03-23T13:02:34;101596.84;;;11.33;87.54
64967;BME280;51710;38.732;-121.358;2023-03-23T13:05:10;101606.69;;;11.33;87.63
64967;BME280;51710;38.732;-121.358;2023-03-23T13:07:46;101608.63;;;11.31;87.67
64967;BME280;51710;38.732;-121.358;2023-03-23T13:10:47;101610.75;;;11.27;87.29
64967;BME280;51710;38.732;-121.358;2023-03-23T13:13:25;101611.00;;;11.24;87.67
64967;BME280;51710;38.732;-121.358;2023-03-23T13:21:11;101607.22;;;11.17;87.80
64967;BME280;51710;38.732;-121.358;2023-03-23T13:23:46;101614.53;;;11.15;87.80
64967;BME280;51710;38.732;-121.358;2023-03-23T13:26:18;101623.78;;;11.11;88.29
64967;BME280;51710;38.732;-121.358;2023-03-23T13:31:27;101632.47;;;11.13;87.72
64967;BME280;51710;38.732;-121.358;2023-03-23T13:34:12;101634.84;;;11.16;88.19
64967;BME280;51710;38.732;-121.358;2023-03-23T13:36:43;101633.91;;;11.17;87.67
64967;BME280;51710;38.732;-121.358;2023-03-23T13:50:01;101639.22;;;11.17;87.22
64967;BME280;51710;38.732;-121.358;2023-03-23T13:57:52;101642.56;;;11.10;87.46
64967;BME280;51710;38.732;-121.358;2023-03-23T14:03:25;101647.06;;;11.09;87.57
64967;BME280;51710;38.732;-121.358;2023-03-23T14:08:37;101658.41;;;11.11;87.95
64967;BME280;51710;38.732;-121.358;2023-03-23T14:13:50;101671.31;;;11.16;87.30
64967;BME280;51710;38.732;-121.358;2023-03-23T14:16:23;101671.22;;;11.17;87.21
64967;BME280;51710;38.732;-121.358;2023-03-23T14:18:57;101676.41;;;11.19;86.99
64967;BME280;51710;38.732;-121.358;2023-03-23T14:21:36;101676.53;;;11.17;87.23
64967;BME280;51710;38.732;-121.358;2023-03-23T14:24:10;101687.22;;;11.17;87.49
64967;BME280;51710;38.732;-121.358;2023-03-23T14:26:38;101687.88;;;11.19;87.07
64967;BME280;51710;38.732;-121.358;2023-03-23T14:29:05;101696.88;;;11.18;87.04
64967;BME280;51710;38.732;-121.358;2023-03-23T14:31:32;101690.69;;;11.18;86.94
64967;BME280;51710;38.732;-121.358;2023-03-23T14:34:04;101703.31;;;11.16;87.58
64967;BME280;51710;38.732;-121.358;2023-03-23T14:36:37;101710.16;;;11.09;86.71